Time;durP1;ratioP1;P1;durP2;ratioP2;P2;SDS_P1;SDS_P2;PMS_P1;PMS_P2;Temp;Humidity;BMP_temperature;BMP_pressure;BME280_temperature;BME280_humidity;BME280_pressure;Samples;Min_cycle;Max_cycle;Signal;HPM_P1;HPM_P2
2022/08/13 00:01:15;;;;;;;;;;;19.70;99.90;;;;;;5070226;28;19986;-74
2022/08/13 00:03:42;;;;;;;;;;;19.60;99.90;;;;;;5094589;28;19921;-74
2022/08/13 00:06:08;;;;;;;;;;;19.70;99.90;;;;;;5069494;28;19912;-74
2022/08/13 00:08:35;;;;;;;;;;;19.60;99.90;;;;;;5070848;28;20228;-74
2022/08/13 00:11:01;;;;;;;;;;;19.60;99.90;;;;;;5070308;28;20011;-74
2022/08/13 00:13:27;;;;;;;;;;;19.50;99.90;;;;;;5073421;28;19919;-74
2022/08/13 00:15:53;;;;;;;;;;;19.40;99.90;;;;;;5069204;28;19920;-74
2022/08/13 00:18:19;;;;;;;;;;;19.40;99.90;;;;;;5074388;28;19917;-74
2022/08/13 00:20:49;;;;;;;;;;;19.40;99.90;;;;;;5072560;28;19909;-75
2022/08/13 00:23:16;;;;;;;;;;;19.30;99.90;;;;;;5072153;28;19912;-74
2022/08/13 00:25:42;;;;;;;;;;;19.30;99.90;;;;;;5073943;28;20232;-74
2022/08/13 00:28:08;;;;;;;;;;;19.30;99.90;;;;;;5106160;28;19913;-74
2022/08/13 00:30:34;;;;;;;;;;;19.30;99.90;;;;;;5071259;28;19916;-74
2022/08/13 00:33:05;;;;;;;;;;;19.20;99.90;;;;;;5069993;28;20373;-74
2022/08/13 00:35:31;;;;;;;;;;;19.20;99.90;;;;;;5071824;28;19909;-75
2022/08/13 00:37:57;;;;;;;;;;;19.20;99.90;;;;;;5072566;28;19952;-74
2022/08/13 00:40:23;;;;;;;;;;;19.20;99.90;;;;;;5073543;28;20280;-74
2022/08/13 00:42:50;;;;;;;;;;;19.20;99.90;;;;;;5074093;28;19916;-74
2022/08/13 00:45:16;;;;;;;;;;;19.20;99.90;;;;;;5071278;28;20308;-74
2022/08/13 00:50:27;;;;;;;;;;;19.10;99.90;;;;;;5071299;28;20310;-74
2022/08/13 00:52:53;;;;;;;;;;;19.00;99.90;;;;;;5073205;28;20307;-74
2022/08/13 00:55:19;;;;;;;;;;;18.90;99.90;;;;;;5071960;28;19908;-74
2022/08/13 00:57:47;;;;;;;;;;;18.80;99.90;;;;;;5088082;28;20335;-74
2022/08/13 01:00:15;;;;;;;;;;;18.70;99.90;;;;;;5074039;28;19951;-74
2022/08/13 01:02:44;;;;;;;;;;;18.60;99.90;;;;;;5073610;28;19917;-74
2022/08/13 01:05:10;;;;;;;;;;;18.60;99.90;;;;;;5072825;28;19962;-74
2022/08/13 01:07:43;;;;;;;;;;;18.50;99.90;;;;;;5070969;28;19917;-74
2022/08/13 01:10:10;;;;;;;;;;;18.50;99.90;;;;;;5072955;28;19913;-75
2022/08/13 01:12:37;;;;;;;;;;;18.50;99.90;;;;;;5092788;28;19913;-74
2022/08/13 01:15:04;;;;;;;;;;;18.40;99.90;;;;;;5073035;28;20303;-75
2022/08/13 01:17:30;;;;;;;;;;;18.40;99.90;;;;;;5070190;28;20007;-75
2022/08/13 01:19:56;;;;;;;;;;;18.40;99.90;;;;;;5073510;28;19913;-74
2022/08/13 01:22:23;;;;;;;;;;;18.40;99.90;;;;;;5070012;28;19920;-74
2022/08/13 01:24:50;;;;;;;;;;;18.40;99.90;;;;;;5071065;28;20180;-74
2022/08/13 01:27:23;;;;;;;;;;;18.40;99.90;;;;;;5069718;28;19916;-74
2022/08/13 01:29:49;;;;;;;;;;;18.30;99.90;;;;;;5071509;28;20269;-74
2022/08/13 01:32:16;;;;;;;;;;;18.30;99.90;;;;;;5071421;28;19920;-74
2022/08/13 01:34:45;;;;;;;;;;;18.30;99.90;;;;;;5065335;28;19925;-74
2022/08/13 01:37:14;;;;;;;;;;;18.30;99.90;;;;;;5072925;28;19912;-75
2022/08/13 01:39:40;;;;;;;;;;;18.30;99.90;;;;;;5073418;28;19917;-74
2022/08/13 01:42:19;;;;;;;;;;;18.30;99.90;;;;;;5070824;28;19928;-74
2022/08/13 01:44:45;;;;;;;;;;;18.30;99.90;;;;;;5069909;28;19942;-74
2022/08/13 01:52:42;;;;;;;;;;;18.20;99.90;;;;;;5068354;28;20383;-74
2022/08/13 01:55:08;;;;;;;;;;;18.10;99.90;;;;;;5070217;28;19912;-74
2022/08/13 01:57:34;;;;;;;;;;;18.10;99.90;;;;;;5071728;28;20295;-75
2022/08/13 02:00:01;;;;;;;;;;;18.10;99.90;;;;;;5071795;28;20015;-74
2022/08/13 02:02:30;;;;;;;;;;;18.00;99.90;;;;;;5073082;28;19916;-74
2022/08/13 02:04:55;;;;;;;;;;;18.00;99.90;;;;;;5071532;28;20002;-74
2022/08/13 02:07:21;;;;;;;;;;;17.90;99.90;;;;;;5072013;28;19999;-74
2022/08/13 02:09:47;;;;;;;;;;;17.90;99.90;;;;;;5073615;28;19942;-74
2022/08/13 02:12:13;;;;;;;;;;;17.90;99.90;;;;;;5074827;28;19912;-74
2022/08/13 02:14:42;;;;;;;;;;;17.80;99.90;;;;;;5075553;28;20007;-74
2022/08/13 02:17:27;;;;;;;;;;;17.80;99.90;;;;;;5070399;28;20286;-74
2022/08/13 02:19:53;;;;;;;;;;;17.70;99.90;;;;;;5070649;28;19985;-74
2022/08/13 02:22:19;;;;;;;;;;;17.70;99.90;;;;;;5073042;28;19916;-75
2022/08/13 02:24:49;;;;;;;;;;;17.70;99.90;;;;;;5075938;28;19996;-75
2022/08/13 02:27:17;;;;;;;;;;;17.60;99.90;;;;;;5075059;28;20003;-75
2022/08/13 02:29:44;;;;;;;;;;;17.60;99.90;;;;;;5070775;28;19955;-74
2022/08/13 02:32:11;;;;;;;;;;;17.60;99.90;;;;;;5075884;28;19913;-75
2022/08/13 02:34:39;;;;;;;;;;;17.70;99.90;;;;;;5074958;28;19958;-74
2022/08/13 02:37:05;;;;;;;;;;;17.70;99.90;;;;;;5071328;28;19913;-74
2022/08/13 02:39:30;;;;;;;;;;;17.60;99.90;;;;;;5076303;28;20208;-74
2022/08/13 02:41:56;;;;;;;;;;;17.50;99.90;;;;;;5074179;28;19940;-74
2022/08/13 02:44:25;;;;;;;;;;;17.50;99.90;;;;;;5073381;28;19966;-74
2022/08/13 02:46:51;;;;;;;;;;;17.50;99.90;;;;;;5066080;28;20594;-74
2022/08/13 02:49:17;;;;;;;;;;;17.50;99.90;;;;;;5074530;28;20003;-74
2022/08/13 02:51:43;;;;;;;;;;;17.40;99.90;;;;;;5075572;28;19909;-74
2022/08/13 02:54:08;;;;;;;;;;;17.50;99.90;;;;;;5075132;28;19912;-74
2022/08/13 02:56:36;;;;;;;;;;;17.40;99.90;;;;;;5109320;28;20304;-74
2022/08/13 02:59:03;;;;;;;;;;;17.40;99.90;;;;;;5075297;28;20299;-74
2022/08/13 03:01:28;;;;;;;;;;;17.40;99.90;;;;;;5075763;28;19994;-74
2022/08/13 03:03:54;;;;;;;;;;;17.40;99.90;;;;;;5072836;28;19931;-74
2022/08/13 03:06:20;;;;;;;;;;;17.40;99.90;;;;;;5074656;28;19912;-74
2022/08/13 03:08:51;;;;;;;;;;;17.30;99.90;;;;;;5075439;28;19932;-74
2022/08/13 03:11:17;;;;;;;;;;;17.30;99.90;;;;;;5064689;28;20011;-74
2022/08/13 03:13:45;;;;;;;;;;;17.20;99.90;;;;;;5075393;28;19912;-74
2022/08/13 03:16:12;;;;;;;;;;;17.20;99.90;;;;;;5064985;28;19979;-74
2022/08/13 03:18:37;;;;;;;;;;;17.20;99.90;;;;;;5072868;28;19916;-74
2022/08/13 03:21:03;;;;;;;;;;;17.20;99.90;;;;;;5071614;28;19942;-76
2022/08/13 03:23:30;;;;;;;;;;;17.20;99.90;;;;;;5072874;28;19912;-74
2022/08/13 03:25:55;;;;;;;;;;;17.20;99.90;;;;;;5072963;28;21149;-74
2022/08/13 03:28:22;;;;;;;;;;;17.10;99.90;;;;;;5052945;28;19948;-74
2022/08/13 03:30:48;;;;;;;;;;;17.10;99.90;;;;;;5065821;28;19962;-74
2022/08/13 03:33:14;;;;;;;;;;;17.00;99.90;;;;;;5074594;28;19912;-74
2022/08/13 03:35:39;;;;;;;;;;;17.00;99.90;;;;;;5074631;28;19919;-74
2022/08/13 03:38:10;;;;;;;;;;;17.00;99.90;;;;;;5072220;28;19956;-74
2022/08/13 03:43:20;;;;;;;;;;;16.90;99.90;;;;;;5074183;28;19923;-74
2022/08/13 03:45:46;;;;;;;;;;;16.90;99.90;;;;;;5071494;28;19921;-74
2022/08/13 03:48:13;;;;;;;;;;;16.90;99.90;;;;;;5106089;28;19920;-74
2022/08/13 03:50:45;;;;;;;;;;;16.90;99.90;;;;;;5073795;28;20014;-74
2022/08/13 03:53:11;;;;;;;;;;;16.80;99.90;;;;;;5082695;28;20247;-74
2022/08/13 03:55:41;;;;;;;;;;;16.70;99.90;;;;;;5073731;28;19923;-74
2022/08/13 03:58:07;;;;;;;;;;;16.70;99.90;;;;;;5073876;28;19928;-74
2022/08/13 04:00:34;;;;;;;;;;;16.60;99.90;;;;;;5074180;28;20003;-74
2022/08/13 04:03:02;;;;;;;;;;;16.60;99.90;;;;;;5074189;28;20015;-74
2022/08/13 04:05:28;;;;;;;;;;;16.50;99.90;;;;;;5072615;28;19916;-74
2022/08/13 04:07:53;;;;;;;;;;;16.60;99.90;;;;;;5073890;28;19912;-74
2022/08/13 04:10:19;;;;;;;;;;;16.60;99.90;;;;;;5073055;28;19978;-74
2022/08/13 04:12:45;;;;;;;;;;;16.50;99.90;;;;;;5068743;28;19913;-74
2022/08/13 04:15:11;;;;;;;;;;;16.50;99.90;;;;;;5073697;28;20327;-74
2022/08/13 04:17:36;;;;;;;;;;;16.50;99.90;;;;;;5072589;28;19924;-74
2022/08/13 04:20:06;;;;;;;;;;;16.50;99.90;;;;;;5071733;28;19912;-73
2022/08/13 04:22:33;;;;;;;;;;;16.50;99.90;;;;;;5071123;28;19979;-73
2022/08/13 04:24:58;;;;;;;;;;;16.50;99.90;;;;;;5072344;28;19916;-73
2022/08/13 04:27:24;;;;;;;;;;;16.50;99.90;;;;;;5070582;28;19912;-74
2022/08/13 04:29:51;;;;;;;;;;;16.50;99.90;;;;;;5069737;28;19952;-74
2022/08/13 04:32:19;;;;;;;;;;;16.50;99.90;;;;;;5074210;28;19913;-74
2022/08/13 04:34:45;;;;;;;;;;;16.50;99.90;;;;;;5074358;28;19908;-74
2022/08/13 04:37:11;;;;;;;;;;;16.50;99.90;;;;;;5074495;28;19916;-74
2022/08/13 04:39:37;;;;;;;;;;;16.50;99.90;;;;;;5074608;28;19919;-74
2022/08/13 04:42:02;;;;;;;;;;;16.50;99.90;;;;;;5073677;28;19920;-74
2022/08/13 04:44:28;;;;;;;;;;;16.50;99.90;;;;;;5072714;28;19995;-74
2022/08/13 04:46:55;;;;;;;;;;;16.50;99.90;;;;;;5073449;28;19944;-74
2022/08/13 04:49:20;;;;;;;;;;;16.60;99.90;;;;;;5073168;28;19909;-74
2022/08/13 04:51:46;;;;;;;;;;;16.50;99.90;;;;;;5073890;28;20014;-74
2022/08/13 04:54:11;;;;;;;;;;;16.50;99.90;;;;;;5072778;28;20322;-75
2022/08/13 04:56:37;;;;;;;;;;;16.60;99.90;;;;;;5072997;28;19913;-74
2022/08/13 04:59:03;;;;;;;;;;;16.70;99.90;;;;;;5074226;28;19913;-74
2022/08/13 05:01:29;;;;;;;;;;;16.60;99.90;;;;;;5073963;28;19916;-74
2022/08/13 05:03:55;;;;;;;;;;;16.70;99.90;;;;;;5071401;28;20023;-73
2022/08/13 05:06:21;;;;;;;;;;;16.70;99.90;;;;;;5071968;28;19912;-74
2022/08/13 05:08:50;;;;;;;;;;;16.70;99.90;;;;;;5069667;28;20307;-74
2022/08/13 05:11:17;;;;;;;;;;;16.70;99.90;;;;;;5071893;28;19966;-74
2022/08/13 05:13:43;;;;;;;;;;;16.70;99.90;;;;;;5072070;28;20386;-74
2022/08/13 05:16:13;;;;;;;;;;;16.70;99.90;;;;;;5071671;28;19943;-75
2022/08/13 05:18:42;;;;;;;;;;;16.80;99.90;;;;;;5070874;28;20408;-76
2022/08/13 05:21:11;;;;;;;;;;;16.80;99.90;;;;;;5071316;28;19923;-74
2022/08/13 05:23:38;;;;;;;;;;;16.80;99.90;;;;;;5071657;28;19959;-74
2022/08/13 05:26:04;;;;;;;;;;;16.90;99.90;;;;;;5071034;28;19912;-74
2022/08/13 05:28:31;;;;;;;;;;;16.90;99.90;;;;;;5070550;28;20315;-74
2022/08/13 05:30:57;;;;;;;;;;;17.00;99.90;;;;;;5063402;28;20304;-74
2022/08/13 05:33:24;;;;;;;;;;;17.10;99.90;;;;;;5069922;28;19958;-74
2022/08/13 05:35:55;;;;;;;;;;;17.10;99.90;;;;;;5073622;28;19909;-74
2022/08/13 05:38:22;;;;;;;;;;;17.20;99.90;;;;;;5072434;28;19921;-74
2022/08/13 05:40:58;;;;;;;;;;;17.30;99.90;;;;;;5066163;28;19962;-74
2022/08/13 05:43:26;;;;;;;;;;;17.40;99.90;;;;;;5071936;28;19919;-74
2022/08/13 05:45:57;;;;;;;;;;;17.40;99.90;;;;;;5068286;28;19916;-74
2022/08/13 05:48:24;;;;;;;;;;;17.50;99.90;;;;;;5070951;28;20282;-74
2022/08/13 05:50:50;;;;;;;;;;;17.60;99.90;;;;;;5073097;28;19952;-74
2022/08/13 05:53:17;;;;;;;;;;;17.60;99.90;;;;;;5070299;28;19971;-73
2022/08/13 05:55:42;;;;;;;;;;;17.70;99.90;;;;;;5073632;28;19999;-74
2022/08/13 05:58:09;;;;;;;;;;;17.80;99.90;;;;;;5073555;28;19920;-73
2022/08/13 06:03:24;;;;;;;;;;;18.00;99.90;;;;;;5072702;28;19973;-73
2022/08/13 06:05:53;;;;;;;;;;;18.10;99.90;;;;;;5073383;28;19970;-73
2022/08/13 06:08:23;;;;;;;;;;;18.20;99.90;;;;;;5072237;28;19919;-73
2022/08/13 06:10:49;;;;;;;;;;;18.30;99.90;;;;;;5073753;28;19918;-73
2022/08/13 06:13:16;;;;;;;;;;;18.40;99.90;;;;;;5073956;28;19913;-72
2022/08/13 06:15:43;;;;;;;;;;;18.50;99.90;;;;;;5074248;28;19924;-73
2022/08/13 06:18:10;;;;;;;;;;;18.60;99.90;;;;;;5071775;28;19912;-74
2022/08/13 06:20:36;;;;;;;;;;;18.70;99.90;;;;;;5074545;28;19916;-74
2022/08/13 06:23:03;;;;;;;;;;;18.80;99.90;;;;;;5073988;28;19978;-73
2022/08/13 06:25:31;;;;;;;;;;;18.90;99.90;;;;;;5073496;28;19920;-74
2022/08/13 06:28:03;;;;;;;;;;;18.90;99.90;;;;;;5072668;28;19916;-73
2022/08/13 06:30:30;;;;;;;;;;;19.00;99.90;;;;;;5071495;28;20027;-74
2022/08/13 06:33:02;;;;;;;;;;;19.10;99.90;;;;;;5074312;28;19913;-75
2022/08/13 06:35:28;;;;;;;;;;;19.20;99.90;;;;;;5072673;28;19917;-74
2022/08/13 06:37:54;;;;;;;;;;;19.40;99.90;;;;;;5072366;28;19977;-74
2022/08/13 06:40:21;;;;;;;;;;;19.50;99.90;;;;;;5075010;28;20257;-74
2022/08/13 06:42:47;;;;;;;;;;;19.60;99.90;;;;;;5076043;28;19927;-72
2022/08/13 06:45:12;;;;;;;;;;;19.70;99.90;;;;;;5075115;28;20421;-73
2022/08/13 06:47:38;;;;;;;;;;;19.70;99.90;;;;;;5071339;28;19916;-73
2022/08/13 06:50:09;;;;;;;;;;;20.00;99.90;;;;;;5068380;28;20038;-73
2022/08/13 06:52:36;;;;;;;;;;;20.10;99.90;;;;;;5071375;28;20225;-74
2022/08/13 06:55:01;;;;;;;;;;;20.30;99.90;;;;;;5075562;28;20599;-73
2022/08/13 06:57:27;;;;;;;;;;;20.50;99.90;;;;;;5061562;28;19917;-75
2022/08/13 06:59:57;;;;;;;;;;;20.70;99.90;;;;;;5087941;28;20386;-73
2022/08/13 07:02:24;;;;;;;;;;;20.80;99.90;;;;;;5072899;28;19913;-73
2022/08/13 07:04:50;;;;;;;;;;;20.90;99.90;;;;;;5070110;28;19935;-74
2022/08/13 07:07:17;;;;;;;;;;;21.00;99.90;;;;;;5074141;28;20307;-74
2022/08/13 07:09:44;;;;;;;;;;;21.10;99.90;;;;;;5073465;28;19918;-74
2022/08/13 07:12:10;;;;;;;;;;;21.30;99.90;;;;;;5071891;28;19912;-74
2022/08/13 07:14:36;;;;;;;;;;;21.40;99.90;;;;;;5073728;28;19916;-75
2022/08/13 07:17:01;;;;;;;;;;;21.50;99.80;;;;;;5107268;28;19935;-73
2022/08/13 07:19:27;;;;;;;;;;;21.70;99.70;;;;;;5070542;28;20015;-73
2022/08/13 07:21:54;;;;;;;;;;;21.90;99.90;;;;;;5071736;28;19939;-77
2022/08/13 07:24:19;;;;;;;;;;;22.00;99.90;;;;;;5071953;28;19924;-74
2022/08/13 07:26:45;;;;;;;;;;;22.10;99.90;;;;;;5073490;28;19919;-74
2022/08/13 07:29:12;;;;;;;;;;;22.20;99.90;;;;;;5074664;28;19935;-74
2022/08/13 07:31:40;;;;;;;;;;;22.50;99.90;;;;;;5071948;28;21526;-74
2022/08/13 07:34:06;;;;;;;;;;;22.90;99.10;;;;;;5073724;28;19917;-74
2022/08/13 07:36:36;;;;;;;;;;;23.40;99.70;;;;;;5072492;28;19970;-75
2022/08/13 07:39:06;;;;;;;;;;;23.80;97.80;;;;;;5073875;28;19917;-74
2022/08/13 07:41:32;;;;;;;;;;;24.20;97.50;;;;;;5071730;28;20360;-75
2022/08/13 07:43:59;;;;;;;;;;;24.60;96.50;;;;;;5073219;28;20326;-75
2022/08/13 07:46:25;;;;;;;;;;;24.90;96.60;;;;;;5072927;28;20219;-74
2022/08/13 07:48:52;;;;;;;;;;;25.30;97.60;;;;;;5072425;28;19930;-74
2022/08/13 07:51:21;;;;;;;;;;;25.50;97.60;;;;;;5070094;28;20288;-74
2022/08/13 07:53:50;;;;;;;;;;;25.60;97.10;;;;;;5070840;28;19920;-75
2022/08/13 07:56:19;;;;;;;;;;;25.90;95.00;;;;;;5075621;28;19923;-75
2022/08/13 07:58:45;;;;;;;;;;;26.30;96.00;;;;;;5072912;28;19913;-75
2022/08/13 08:01:11;;;;;;;;;;;26.50;95.70;;;;;;5072656;28;19988;-75
2022/08/13 08:03:45;;;;;;;;;;;26.70;95.10;;;;;;5072527;28;19917;-74
2022/08/13 08:06:18;;;;;;;;;;;26.70;92.70;;;;;;5069946;28;20176;-75
2022/08/13 08:08:44;;;;;;;;;;;26.90;93.70;;;;;;5066450;28;19913;-73
2022/08/13 08:12:30;;;;;;;;;;;27.10;93.20;;;;;;5071893;28;19909;-75
2022/08/13 08:13:59;;;;;;;;;;;27.20;92.00;;;;;;5068710;28;19916;-74
2022/08/13 08:16:30;;;;;;;;;;;27.20;92.30;;;;;;5072275;28;19921;-74
2022/08/13 08:18:57;;;;;;;;;;;27.40;92.80;;;;;;5066025;28;20002;-75
2022/08/13 08:21:23;;;;;;;;;;;27.50;91.60;;;;;;5068452;28;20394;-75
2022/08/13 08:23:52;;;;;;;;;;;27.60;92.30;;;;;;5068335;28;20050;-76
2022/08/13 08:26:18;;;;;;;;;;;27.90;92.40;;;;;;5069033;28;19962;-77
2022/08/13 08:28:46;;;;;;;;;;;28.00;91.00;;;;;;5073687;28;19989;-75
2022/08/13 08:31:11;;;;;;;;;;;28.00;90.50;;;;;;5070788;28;19913;-74
2022/08/13 08:33:40;;;;;;;;;;;28.00;90.20;;;;;;5072087;28;20219;-74
2022/08/13 08:36:06;;;;;;;;;;;28.00;90.90;;;;;;5072627;28;20266;-74
2022/08/13 08:44:02;;;;;;;;;;;28.80;90.90;;;;;;5066976;28;20251;-75
2022/08/13 08:46:33;;;;;;;;;;;28.80;90.00;;;;;;5068497;28;19913;-77
2022/08/13 08:49:00;;;;;;;;;;;28.80;89.70;;;;;;5070958;28;19923;-76
2022/08/13 08:51:25;;;;;;;;;;;28.80;90.70;;;;;;5070957;28;19913;-75
2022/08/13 08:53:51;;;;;;;;;;;28.90;90.30;;;;;;5069370;28;20180;-75
2022/08/13 08:56:18;;;;;;;;;;;29.20;89.60;;;;;;5072604;28;19924;-75
2022/08/13 08:58:43;;;;;;;;;;;29.20;88.20;;;;;;5072315;28;19913;-74
2022/08/13 09:01:13;;;;;;;;;;;29.30;89.80;;;;;;5068486;28;20066;-74
2022/08/13 09:03:42;;;;;;;;;;;29.60;90.60;;;;;;5070170;28;20326;-74
2022/08/13 09:06:08;;;;;;;;;;;29.80;91.70;;;;;;5071194;28;19912;-73
2022/08/13 09:08:35;;;;;;;;;;;30.20;89.90;;;;;;5072494;28;19960;-75
2022/08/13 09:11:02;;;;;;;;;;;30.30;90.30;;;;;;5069248;28;20269;-75
2022/08/13 09:13:28;;;;;;;;;;;30.40;90.40;;;;;;5070366;28;19924;-75
2022/08/13 09:15:57;;;;;;;;;;;30.60;89.70;;;;;;5067505;28;20318;-74
2022/08/13 09:18:23;;;;;;;;;;;30.40;89.00;;;;;;5069319;28;19977;-74
2022/08/13 09:20:49;;;;;;;;;;;30.20;89.60;;;;;;5069692;28;19917;-73
2022/08/13 09:23:16;;;;;;;;;;;30.30;89.10;;;;;;5072869;28;20003;-74
2022/08/13 09:25:48;;;;;;;;;;;29.70;88.30;;;;;;5070005;28;20357;-74
2022/08/13 09:28:26;;;;;;;;;;;29.70;90.30;;;;;;5071775;28;19915;-75
2022/08/13 09:30:53;;;;;;;;;;;29.70;90.60;;;;;;5066537;28;19920;-73
2022/08/13 09:33:20;;;;;;;;;;;29.70;88.90;;;;;;5065404;28;19920;-74
2022/08/13 09:35:49;;;;;;;;;;;29.70;88.10;;;;;;5066439;28;19948;-74
2022/08/13 09:38:15;;;;;;;;;;;29.80;89.70;;;;;;5070872;28;20011;-74
2022/08/13 09:41:03;;;;;;;;;;;29.80;89.80;;;;;;5072717;28;19912;-74
2022/08/13 09:43:36;;;;;;;;;;;29.60;89.20;;;;;;5069093;28;20307;-72
2022/08/13 09:46:04;;;;;;;;;;;29.50;89.50;;;;;;5071199;28;19931;-74
2022/08/13 09:48:30;;;;;;;;;;;29.40;89.20;;;;;;5068473;28;20258;-73
2022/08/13 09:50:55;;;;;;;;;;;29.30;89.90;;;;;;5073150;28;19918;-72
2022/08/13 09:53:25;;;;;;;;;;;29.10;88.30;;;;;;5073281;28;20236;-75
2022/08/13 09:55:52;;;;;;;;;;;29.20;90.00;;;;;;5066143;28;19943;-73
2022/08/13 09:58:18;;;;;;;;;;;29.40;89.40;;;;;;5073122;28;19912;-75
2022/08/13 10:00:45;;;;;;;;;;;29.50;85.90;;;;;;5073137;28;19912;-75
2022/08/13 10:03:12;;;;;;;;;;;29.40;87.30;;;;;;5073658;28;19974;-74
2022/08/13 10:05:38;;;;;;;;;;;29.30;87.40;;;;;;5069222;28;19919;-75
2022/08/13 10:08:05;;;;;;;;;;;29.30;88.20;;;;;;5072677;28;19909;-75
2022/08/13 10:10:30;;;;;;;;;;;29.50;86.50;;;;;;5102906;28;19991;-76
2022/08/13 10:12:57;;;;;;;;;;;29.50;88.00;;;;;;5064505;28;20046;-75
2022/08/13 10:15:23;;;;;;;;;;;29.60;89.20;;;;;;5072417;28;20224;-76
2022/08/13 10:17:53;;;;;;;;;;;29.60;88.00;;;;;;5072138;28;19923;-74
2022/08/13 10:20:21;;;;;;;;;;;29.90;88.90;;;;;;5072794;28;20232;-75
2022/08/13 10:22:48;;;;;;;;;;;30.00;89.40;;;;;;5071592;28;20212;-76
2022/08/13 10:25:14;;;;;;;;;;;30.10;87.60;;;;;;5073080;28;19934;-75
2022/08/13 10:27:40;;;;;;;;;;;30.20;87.10;;;;;;5073061;28;19912;-77
2022/08/13 10:30:06;;;;;;;;;;;30.10;85.20;;;;;;5104886;28;19920;-75
2022/08/13 10:32:32;;;;;;;;;;;30.20;87.30;;;;;;5076407;28;19934;-75
2022/08/13 10:35:00;;;;;;;;;;;30.10;84.70;;;;;;5109341;28;21649;-75
2022/08/13 10:37:28;;;;;;;;;;;30.20;84.90;;;;;;5075024;28;20011;-77
2022/08/13 10:39:54;;;;;;;;;;;30.30;84.50;;;;;;5072559;28;20257;-75
2022/08/13 10:42:21;;;;;;;;;;;30.40;86.60;;;;;;5072249;28;20227;-77
2022/08/13 10:44:51;;;;;;;;;;;30.60;85.20;;;;;;5074468;28;19916;-78
2022/08/13 10:47:18;;;;;;;;;;;30.60;85.50;;;;;;5074213;28;20007;-77
2022/08/13 10:49:44;;;;;;;;;;;30.60;86.50;;;;;;5073385;28;19917;-78
2022/08/13 10:52:09;;;;;;;;;;;30.50;82.80;;;;;;5075745;28;19970;-75
2022/08/13 10:54:35;;;;;;;;;;;30.30;84.00;;;;;;5070037;28;19916;-76
2022/08/13 10:57:00;;;;;;;;;;;30.20;82.10;;;;;;5073873;28;19951;-77
2022/08/13 10:59:26;;;;;;;;;;;30.30;82.50;;;;;;5054017;28;19928;-78
2022/08/13 11:01:51;;;;;;;;;;;30.60;83.10;;;;;;5072227;28;19946;-77
2022/08/13 11:04:17;;;;;;;;;;;31.00;79.50;;;;;;5072154;28;19922;-78
2022/08/13 11:06:45;;;;;;;;;;;31.40;82.30;;;;;;5070135;28;19973;-75
2022/08/13 11:09:10;;;;;;;;;;;31.40;80.40;;;;;;5071146;28;19919;-76
2022/08/13 11:11:36;;;;;;;;;;;31.50;85.30;;;;;;5069731;28;19916;-77
2022/08/13 11:14:02;;;;;;;;;;;31.50;79.80;;;;;;5072193;28;20204;-76
2022/08/13 11:18:59;;;;;;;;;;;31.10;81.90;;;;;;5058186;28;19917;-77
2022/08/13 11:21:25;;;;;;;;;;;31.50;83.50;;;;;;5071726;28;20330;-77
2022/08/13 11:23:54;;;;;;;;;;;31.90;78.70;;;;;;5067943;28;19926;-77
2022/08/13 11:26:20;;;;;;;;;;;32.10;79.80;;;;;;5069331;28;19912;-76
2022/08/13 11:28:45;;;;;;;;;;;32.20;80.00;;;;;;5071573;28;19986;-77
2022/08/13 11:31:11;;;;;;;;;;;32.10;79.90;;;;;;5070779;28;19912;-77
2022/08/13 11:33:37;;;;;;;;;;;32.40;79.20;;;;;;5068437;28;19923;-77
2022/08/13 11:36:03;;;;;;;;;;;32.80;81.00;;;;;;5067244;28;20003;-78
2022/08/13 11:38:29;;;;;;;;;;;32.70;80.30;;;;;;5070510;28;20015;-78
2022/08/13 11:40:55;;;;;;;;;;;32.90;77.40;;;;;;5065138;28;19939;-76
2022/08/13 11:43:22;;;;;;;;;;;32.70;77.70;;;;;;5076664;28;19921;-79
2022/08/13 11:45:49;;;;;;;;;;;32.10;76.80;;;;;;5066161;28;19919;-78
2022/08/13 11:48:16;;;;;;;;;;;32.40;78.90;;;;;;5085884;28;19928;-77
2022/08/13 11:50:41;;;;;;;;;;;32.90;73.50;;;;;;5069014;28;19920;-77
2022/08/13 11:53:07;;;;;;;;;;;32.90;78.00;;;;;;5069055;28;20227;-77
2022/08/13 11:55:32;;;;;;;;;;;32.80;75.50;;;;;;5083889;28;19947;-77
2022/08/13 11:58:02;;;;;;;;;;;33.20;73.70;;;;;;5070237;28;19995;-76
2022/08/13 12:00:28;;;;;;;;;;;33.30;75.90;;;;;;5071534;28;19919;-77
2022/08/13 12:02:54;;;;;;;;;;;33.50;73.70;;;;;;5069815;28;19920;-77
2022/08/13 12:05:20;;;;;;;;;;;33.40;74.40;;;;;;5069891;28;19917;-80
2022/08/13 12:07:45;;;;;;;;;;;33.40;74.60;;;;;;5070238;28;19913;-78
2022/08/13 12:10:11;;;;;;;;;;;33.70;72.00;;;;;;5070769;28;19995;-77
2022/08/13 12:12:37;;;;;;;;;;;33.50;73.30;;;;;;5062759;28;20326;-84
2022/08/13 12:15:02;;;;;;;;;;;33.60;70.80;;;;;;5102733;28;19938;-76
2022/08/13 12:17:28;;;;;;;;;;;33.50;69.60;;;;;;5069586;28;20002;-76
2022/08/13 12:19:54;;;;;;;;;;;33.20;71.90;;;;;;5070034;28;19917;-77
2022/08/13 12:22:19;;;;;;;;;;;32.90;72.00;;;;;;5070971;28;19984;-78
2022/08/13 12:24:45;;;;;;;;;;;33.10;72.80;;;;;;5067728;28;21060;-76
2022/08/13 12:27:10;;;;;;;;;;;33.40;73.80;;;;;;5065216;28;19982;-77
2022/08/13 12:29:36;;;;;;;;;;;33.70;71.30;;;;;;5062145;28;20357;-75
2022/08/13 12:32:01;;;;;;;;;;;33.70;73.90;;;;;;5067866;28;20312;-76
2022/08/13 12:34:27;;;;;;;;;;;33.60;73.50;;;;;;5068686;28;19916;-76
2022/08/13 12:36:53;;;;;;;;;;;33.70;73.20;;;;;;5069245;28;19928;-77
2022/08/13 12:39:18;;;;;;;;;;;33.80;69.80;;;;;;5065262;28;19916;-77
2022/08/13 12:41:44;;;;;;;;;;;33.80;73.70;;;;;;5068712;28;19920;-77
2022/08/13 12:44:10;;;;;;;;;;;33.80;70.20;;;;;;5069724;28;19923;-79
2022/08/13 12:46:35;;;;;;;;;;;33.70;73.00;;;;;;5068262;28;20043;-78
2022/08/13 12:49:02;;;;;;;;;;;33.80;76.00;;;;;;5071385;28;20358;-78
2022/08/13 12:51:28;;;;;;;;;;;34.00;74.60;;;;;;5067692;28;19917;-80
2022/08/13 12:53:53;;;;;;;;;;;34.20;75.70;;;;;;5060777;28;19965;-78
2022/08/13 12:56:19;;;;;;;;;;;34.40;75.30;;;;;;5066560;28;19920;-79
2022/08/13 12:58:45;;;;;;;;;;;34.40;75.80;;;;;;5066330;28;19916;-84
2022/08/13 13:01:11;;;;;;;;;;;34.50;74.70;;;;;;5097535;28;19924;-80
2022/08/13 13:03:36;;;;;;;;;;;34.60;73.60;;;;;;5069473;28;19916;-82
2022/08/13 13:06:02;;;;;;;;;;;34.60;71.70;;;;;;5069743;28;19920;-78
2022/08/13 13:08:28;;;;;;;;;;;34.60;73.60;;;;;;5067716;28;20322;-82
2022/08/13 13:10:55;;;;;;;;;;;34.80;74.10;;;;;;5067973;28;20326;-78
2022/08/13 13:13:22;;;;;;;;;;;34.70;74.30;;;;;;5067752;28;19935;-82
2022/08/13 13:15:48;;;;;;;;;;;34.70;74.80;;;;;;5069193;28;19924;-80
2022/08/13 13:18:15;;;;;;;;;;;34.60;71.80;;;;;;5068331;28;20009;-81
2022/08/13 13:20:43;;;;;;;;;;;34.80;73.90;;;;;;5069088;28;19921;-84
2022/08/13 13:23:13;;;;;;;;;;;34.70;73.60;;;;;;5068378;28;20480;-83
2022/08/13 13:25:40;;;;;;;;;;;34.80;72.90;;;;;;5068792;28;19923;-77
2022/08/13 13:28:07;;;;;;;;;;;34.70;69.40;;;;;;5066406;28;20334;-80
2022/08/13 13:30:34;;;;;;;;;;;34.70;70.80;;;;;;5068066;28;19923;-79
2022/08/13 13:32:59;;;;;;;;;;;34.70;74.00;;;;;;5066332;28;19923;-82
2022/08/13 13:35:25;;;;;;;;;;;34.80;74.40;;;;;;5067076;28;19916;-81
2022/08/13 13:37:52;;;;;;;;;;;34.80;71.70;;;;;;5067432;28;19963;-83
2022/08/13 13:40:17;;;;;;;;;;;34.80;72.10;;;;;;5069051;28;19912;-82
2022/08/13 13:42:43;;;;;;;;;;;34.90;72.10;;;;;;5068061;28;19927;-79
2022/08/13 13:45:09;;;;;;;;;;;34.90;69.10;;;;;;5069369;28;19917;-79
2022/08/13 13:47:36;;;;;;;;;;;34.90;70.70;;;;;;5069197;28;19916;-82
2022/08/13 13:50:03;;;;;;;;;;;35.00;72.70;;;;;;5066669;28;19917;-78
2022/08/13 13:52:28;;;;;;;;;;;35.00;72.60;;;;;;5069524;28;20002;-82
2022/08/13 13:54:54;;;;;;;;;;;35.00;72.00;;;;;;5068164;28;19944;-78
2022/08/13 13:57:19;;;;;;;;;;;35.00;72.10;;;;;;5068558;28;19917;-82
2022/08/13 13:59:45;;;;;;;;;;;35.00;69.60;;;;;;5068003;28;19995;-79
2022/08/13 14:02:11;;;;;;;;;;;35.00;70.50;;;;;;5066695;28;19920;-80
2022/08/13 14:04:40;;;;;;;;;;;35.10;72.00;;;;;;5067970;28;19916;-82
2022/08/13 14:07:06;;;;;;;;;;;35.00;71.20;;;;;;5070972;28;19923;-80
2022/08/13 14:09:32;;;;;;;;;;;35.00;71.80;;;;;;5070363;28;19922;-80
2022/08/13 14:12:00;;;;;;;;;;;35.10;70.00;;;;;;5071867;28;19917;-81
2022/08/13 14:14:25;;;;;;;;;;;35.00;69.80;;;;;;5071033;28;19920;-76
2022/08/13 14:16:52;;;;;;;;;;;34.90;66.10;;;;;;5071854;28;19924;-82
2022/08/13 14:19:19;;;;;;;;;;;34.70;66.90;;;;;;5071225;28;19951;-79
2022/08/13 14:21:46;;;;;;;;;;;34.60;70.80;;;;;;5072232;28;19924;-83
2022/08/13 14:24:11;;;;;;;;;;;34.50;68.20;;;;;;5071293;28;20683;-74
2022/08/13 14:26:38;;;;;;;;;;;34.30;67.90;;;;;;5071020;28;19924;-76
2022/08/13 14:29:04;;;;;;;;;;;34.20;66.10;;;;;;5072063;28;19916;-81
2022/08/13 14:31:30;;;;;;;;;;;33.90;67.20;;;;;;5072131;28;19912;-76
2022/08/13 14:33:55;;;;;;;;;;;33.80;65.20;;;;;;5070718;28;19942;-79
2022/08/13 14:36:24;;;;;;;;;;;33.70;70.70;;;;;;5070817;28;19920;-80